首页
METAR-TAF:

METAR-TAF

机场 :

伊斯特爾, 法国

纬度: 43-31N, 经度: 004-56E, 海拔: 23米

当前天气观测

该预报发布于30分钟前的20:00 UTC
风速2节,风向西转西北
温度 4°C
湿度 87%
气压 1008 hPa
能见度10公里或以上
1500米以下无云,无积雨云

METAR: LFMI 172000Z AUTO 29002KT CAVOK 04/02 Q1008 NOSIG

时间: 21:30 (20:30 UTC)

预报

该预报发布于6小时和30分钟前的14:00 UTC
预报有效从17日的 15点(UTC)到 18日的 15点(UTC)
风速10节,风向西北
能见度10公里或以上
少量云层高于4400英尺
多云层高于5000英尺
短暂存在
从 18日的 00点(UTC)到 18日的 09点(UTC)
能見度: 3000
多云层高于700英尺
轻雾

TAF: LFMI 171400Z 1715/1815 32010KT 9999 FEW044 BKN050 TEMPO 1800/1809 3000 BR BKN007

超过4000个机场的气象观测和天气预报(METAR&TAF报告)。

可查询的气象台以黄色和红色小点在地图上表示。

将鼠标移到小点上方,可查看气象台名称。

然后点击查看天气观测和预报。

如需切换地图:点击带黑十字的绿色按钮放大地图;点击带横线的绿色按钮缩小地图;或者点击绿色箭头查看邻近地区的地图。


METAR-TAF: